sensor_id;sensor_type;location;lat;lon;timestamp;temperature;humidity
20568;DHT22;10442;49.932;11.592;2023-10-31T00:01:26;15.80;77.70
20568;DHT22;10442;49.932;11.592;2023-10-31T00:03:54;15.80;77.60
20568;DHT22;10442;49.932;11.592;2023-10-31T00:06:22;15.80;77.50
20568;DHT22;10442;49.932;11.592;2023-10-31T00:08:50;15.80;77.60
20568;DHT22;10442;49.932;11.592;2023-10-31T00:11:17;15.80;77.50
20568;DHT22;10442;49.932;11.592;2023-10-31T00:13:45;15.80;77.50
20568;DHT22;10442;49.932;11.592;2023-10-31T00:16:12;15.80;77.50
20568;DHT22;10442;49.932;11.592;2023-10-31T00:18:40;15.80;77.60
20568;DHT22;10442;49.932;11.592;2023-10-31T00:21:07;15.80;77.60
20568;DHT22;10442;49.932;11.592;2023-10-31T00:23:46;15.80;77.60
20568;DHT22;10442;49.932;11.592;2023-10-31T00:26:14;15.80;77.80
20568;DHT22;10442;49.932;11.592;2023-10-31T00:28:48;15.80;77.60
20568;DHT22;10442;49.932;11.592;2023-10-31T00:31:16;15.80;77.70
20568;DHT22;10442;49.932;11.592;2023-10-31T00:33:44;15.70;77.70
20568;DHT22;10442;49.932;11.592;2023-10-31T00:36:11;15.70;77.60
20568;DHT22;10442;49.932;11.592;2023-10-31T00:38:39;15.70;77.80
20568;DHT22;10442;49.932;11.592;2023-10-31T00:41:07;15.70;78.00
20568;DHT22;10442;49.932;11.592;2023-10-31T00:43:34;15.70;78.00
20568;DHT22;10442;49.932;11.592;2023-10-31T00:46:03;15.70;78.10
20568;DHT22;10442;49.932;11.592;2023-10-31T00:48:31;15.70;78.40
20568;DHT22;10442;49.932;11.592;2023-10-31T00:51:04;15.70;78.30
20568;DHT22;10442;49.932;11.592;2023-10-31T00:53:33;15.70;78.50
20568;DHT22;10442;49.932;11.592;2023-10-31T00:56:01;15.70;78.50
20568;DHT22;10442;49.932;11.592;2023-10-31T00:58:30;15.70;78.50
20568;DHT22;10442;49.932;11.592;2023-10-31T01:00:58;15.70;78.60
20568;DHT22;10442;49.932;11.592;2023-10-31T01:03:26;15.70;78.60
20568;DHT22;10442;49.932;11.592;2023-10-31T01:05:54;15.70;78.50
20568;DHT22;10442;49.932;11.592;2023-10-31T01:08:21;15.70;78.60
20568;DHT22;10442;49.932;11.592;2023-10-31T01:10:49;15.70;78.70
20568;DHT22;10442;49.932;11.592;2023-10-31T01:13:18;15.70;78.80
20568;DHT22;10442;49.932;11.592;2023-10-31T01:15:46;15.60;78.70
20568;DHT22;10442;49.932;11.592;2023-10-31T01:18:15;15.60;78.80
20568;DHT22;10442;49.932;11.592;2023-10-31T01:20:43;15.60;78.70
20568;DHT22;10442;49.932;11.592;2023-10-31T01:23:10;15.60;78.80
20568;DHT22;10442;49.932;11.592;2023-10-31T01:25:38;15.60;78.90
20568;DHT22;10442;49.932;11.592;2023-10-31T01:28:06;15.50;78.90
20568;DHT22;10442;49.932;11.592;2023-10-31T01:30:34;15.50;78.80
20568;DHT22;10442;49.932;11.592;2023-10-31T01:33:01;15.50;78.80
20568;DHT22;10442;49.932;11.592;2023-10-31T01:35:29;15.50;79.00
20568;DHT22;10442;49.932;11.592;2023-10-31T01:37:57;15.50;79.00
20568;DHT22;10442;49.932;11.592;2023-10-31T01:40:24;15.50;79.10
20568;DHT22;10442;49.932;11.592;2023-10-31T01:42:52;15.50;79.10
20568;DHT22;10442;49.932;11.592;2023-10-31T01:45:19;15.50;79.20
20568;DHT22;10442;49.932;11.592;2023-10-31T01:47:48;15.50;79.30
20568;DHT22;10442;49.932;11.592;2023-10-31T01:50:17;15.50;79.20
20568;DHT22;10442;49.932;11.592;2023-10-31T01:52:46;15.60;79.30
20568;DHT22;10442;49.932;11.592;2023-10-31T01:55:14;15.40;79.10
20568;DHT22;10442;49.932;11.592;2023-10-31T01:57:44;15.50;79.10
20568;DHT22;10442;49.932;11.592;2023-10-31T02:00:14;15.50;79.10
20568;DHT22;10442;49.932;11.592;2023-10-31T02:02:42;15.50;78.90
20568;DHT22;10442;49.932;11.592;2023-10-31T02:05:10;15.50;78.90
20568;DHT22;10442;49.932;11.592;2023-10-31T02:07:38;15.40;78.80
20568;DHT22;10442;49.932;11.592;2023-10-31T02:10:06;15.40;78.70
20568;DHT22;10442;49.932;11.592;2023-10-31T02:12:37;15.50;78.80
20568;DHT22;10442;49.932;11.592;2023-10-31T02:15:05;15.40;78.60
20568;DHT22;10442;49.932;11.592;2023-10-31T02:17:33;15.40;78.60
20568;DHT22;10442;49.932;11.592;2023-10-31T02:20:01;15.50;78.80
20568;DHT22;10442;49.932;11.592;2023-10-31T02:22:29;15.40;78.60
20568;DHT22;10442;49.932;11.592;2023-10-31T02:24:56;15.40;78.60
20568;DHT22;10442;49.932;11.592;2023-10-31T02:27:25;15.40;78.60
20568;DHT22;10442;49.932;11.592;2023-10-31T02:29:53;15.40;78.60
20568;DHT22;10442;49.932;11.592;2023-10-31T02:32:20;15.40;78.60
20568;DHT22;10442;49.932;11.592;2023-10-31T02:34:49;15.40;78.60
20568;DHT22;10442;49.932;11.592;2023-10-31T02:37:16;15.40;78.70
20568;DHT22;10442;49.932;11.592;2023-10-31T02:39:44;15.40;78.70
20568;DHT22;10442;49.932;11.592;2023-10-31T02:42:11;15.40;78.50
20568;DHT22;10442;49.932;11.592;2023-10-31T02:44:38;15.40;78.60
20568;DHT22;10442;49.932;11.592;2023-10-31T02:47:06;15.30;78.50
20568;DHT22;10442;49.932;11.592;2023-10-31T02:49:33;15.40;78.50
20568;DHT22;10442;49.932;11.592;2023-10-31T02:52:01;15.40;78.40
20568;DHT22;10442;49.932;11.592;2023-10-31T02:54:28;15.40;78.40
20568;DHT22;10442;49.932;11.592;2023-10-31T02:56:57;15.30;78.90
20568;DHT22;10442;49.932;11.592;2023-10-31T02:59:25;15.30;77.80
20568;DHT22;10442;49.932;11.592;2023-10-31T03:01:53;15.30;77.60
20568;DHT22;10442;49.932;11.592;2023-10-31T03:04:20;15.30;77.30
20568;DHT22;10442;49.932;11.592;2023-10-31T03:06:48;15.30;76.90
20568;DHT22;10442;49.932;11.592;2023-10-31T03:09:16;15.20;76.10
20568;DHT22;10442;49.932;11.592;2023-10-31T03:11:43;15.20;76.20
20568;DHT22;10442;49.932;11.592;2023-10-31T03:14:10;15.10;76.20
20568;DHT22;10442;49.932;11.592;2023-10-31T03:16:38;15.10;76.10
20568;DHT22;10442;49.932;11.592;2023-10-31T03:19:07;15.10;76.00
20568;DHT22;10442;49.932;11.592;2023-10-31T03:21:35;15.00;75.70
20568;DHT22;10442;49.932;11.592;2023-10-31T03:24:02;15.00;75.80
20568;DHT22;10442;49.932;11.592;2023-10-31T03:26:29;14.90;75.60
20568;DHT22;10442;49.932;11.592;2023-10-31T03:28:57;14.90;75.70
20568;DHT22;10442;49.932;11.592;2023-10-31T03:31:25;14.90;75.70
20568;DHT22;10442;49.932;11.592;2023-10-31T03:33:55;14.90;75.80
20568;DHT22;10442;49.932;11.592;2023-10-31T03:36:23;14.90;75.90
20568;DHT22;10442;49.932;11.592;2023-10-31T03:38:50;14.90;75.80
20568;DHT22;10442;49.932;11.592;2023-10-31T03:41:18;14.90;75.80
20568;DHT22;10442;49.932;11.592;2023-10-31T03:43:45;14.90;75.40
20568;DHT22;10442;49.932;11.592;2023-10-31T03:46:14;14.90;75.00
20568;DHT22;10442;49.932;11.592;2023-10-31T03:48:41;14.80;74.10
20568;DHT22;10442;49.932;11.592;2023-10-31T03:51:09;14.80;74.10
20568;DHT22;10442;49.932;11.592;2023-10-31T03:53:36;14.80;74.30
20568;DHT22;10442;49.932;11.592;2023-10-31T03:56:04;14.70;73.50
20568;DHT22;10442;49.932;11.592;2023-10-31T03:58:31;14.70;73.60
20568;DHT22;10442;49.932;11.592;2023-10-31T04:00:58;14.60;73.60
20568;DHT22;10442;49.932;11.592;2023-10-31T04:03:26;14.60;73.70
20568;DHT22;10442;49.932;11.592;2023-10-31T04:05:54;14.60;73.70
20568;DHT22;10442;49.932;11.592;2023-10-31T04:08:22;14.60;73.60
20568;DHT22;10442;49.932;11.592;2023-10-31T04:10:49;14.50;73.40
20568;DHT22;10442;49.932;11.592;2023-10-31T04:13:17;14.50;73.40
20568;DHT22;10442;49.932;11.592;2023-10-31T04:15:45;14.50;73.30
20568;DHT22;10442;49.932;11.592;2023-10-31T04:18:12;14.50;73.30
20568;DHT22;10442;49.932;11.592;2023-10-31T04:20:39;14.40;73.30
20568;DHT22;10442;49.932;11.592;2023-10-31T04:23:08;14.40;73.00
20568;DHT22;10442;49.932;11.592;2023-10-31T04:25:35;14.30;73.20
20568;DHT22;10442;49.932;11.592;2023-10-31T04:28:03;14.30;73.30
20568;DHT22;10442;49.932;11.592;2023-10-31T04:30:31;14.30;73.10
20568;DHT22;10442;49.932;11.592;2023-10-31T04:32:59;14.30;72.90
20568;DHT22;10442;49.932;11.592;2023-10-31T04:35:27;14.30;73.00
20568;DHT22;10442;49.932;11.592;2023-10-31T04:37:54;14.30;73.20
20568;DHT22;10442;49.932;11.592;2023-10-31T04:40:22;14.30;73.30
20568;DHT22;10442;49.932;11.592;2023-10-31T04:42:49;14.30;73.30
20568;DHT22;10442;49.932;11.592;2023-10-31T04:45:17;14.30;73.20
20568;DHT22;10442;49.932;11.592;2023-10-31T04:47:44;14.30;73.20
20568;DHT22;10442;49.932;11.592;2023-10-31T04:50:12;14.30;73.20
20568;DHT22;10442;49.932;11.592;2023-10-31T04:52:40;14.30;73.20
20568;DHT22;10442;49.932;11.592;2023-10-31T04:55:08;14.30;73.10
20568;DHT22;10442;49.932;11.592;2023-10-31T04:57:35;14.30;73.20
20568;DHT22;10442;49.932;11.592;2023-10-31T05:00:03;14.30;73.20
20568;DHT22;10442;49.932;11.592;2023-10-31T05:02:34;14.30;73.30
20568;DHT22;10442;49.932;11.592;2023-10-31T05:05:02;14.30;73.10
20568;DHT22;10442;49.932;11.592;2023-10-31T05:07:29;14.20;72.80
20568;DHT22;10442;49.932;11.592;2023-10-31T05:09:57;14.20;72.20
20568;DHT22;10442;49.932;11.592;2023-10-31T05:12:25;14.20;72.10
20568;DHT22;10442;49.932;11.592;2023-10-31T05:14:52;14.20;72.20
20568;DHT22;10442;49.932;11.592;2023-10-31T05:17:20;14.10;72.00
20568;DHT22;10442;49.932;11.592;2023-10-31T05:19:48;14.10;72.30
20568;DHT22;10442;49.932;11.592;2023-10-31T05:22:16;14.10;71.80
20568;DHT22;10442;49.932;11.592;2023-10-31T05:24:43;14.10;72.00
20568;DHT22;10442;49.932;11.592;2023-10-31T05:27:11;14.10;72.10
20568;DHT22;10442;49.932;11.592;2023-10-31T05:29:39;14.10;72.10
20568;DHT22;10442;49.932;11.592;2023-10-31T05:32:06;14.10;72.00
20568;DHT22;10442;49.932;11.592;2023-10-31T05:34:34;14.10;72.10
20568;DHT22;10442;49.932;11.592;2023-10-31T05:37:02;14.10;72.00
20568;DHT22;10442;49.932;11.592;2023-10-31T05:39:29;14.10;72.10
20568;DHT22;10442;49.932;11.592;2023-10-31T05:41:57;14.10;72.10
20568;DHT22;10442;49.932;11.592;2023-10-31T05:44:24;14.10;72.20
20568;DHT22;10442;49.932;11.592;2023-10-31T05:46:52;14.10;72.00
20568;DHT22;10442;49.932;11.592;2023-10-31T05:49:20;14.00;72.00
20568;DHT22;10442;49.932;11.592;2023-10-31T05:51:51;14.00;73.10
20568;DHT22;10442;49.932;11.592;2023-10-31T05:54:19;14.10;72.50
20568;DHT22;10442;49.932;11.592;2023-10-31T05:56:47;14.00;72.20
20568;DHT22;10442;49.932;11.592;2023-10-31T05:59:14;14.00;72.10
20568;DHT22;10442;49.932;11.592;2023-10-31T06:01:42;14.00;72.10
20568;DHT22;10442;49.932;11.592;2023-10-31T06:04:11;14.00;72.20
20568;DHT22;10442;49.932;11.592;2023-10-31T06:06:38;14.00;72.10
20568;DHT22;10442;49.932;11.592;2023-10-31T06:09:06;14.00;72.20
20568;DHT22;10442;49.932;11.592;2023-10-31T06:11:34;13.90;72.10
20568;DHT22;10442;49.932;11.592;2023-10-31T06:14:01;13.90;72.00
20568;DHT22;10442;49.932;11.592;2023-10-31T06:16:29;13.90;72.00
20568;DHT22;10442;49.932;11.592;2023-10-31T06:18:57;13.80;72.10
20568;DHT22;10442;49.932;11.592;2023-10-31T06:21:25;13.80;72.30
20568;DHT22;10442;49.932;11.592;2023-10-31T06:23:52;13.80;72.40
20568;DHT22;10442;49.932;11.592;2023-10-31T06:26:21;13.80;72.40
20568;DHT22;10442;49.932;11.592;2023-10-31T06:28:48;13.80;72.50
20568;DHT22;10442;49.932;11.592;2023-10-31T06:31:36;13.80;72.60
20568;DHT22;10442;49.932;11.592;2023-10-31T06:34:03;13.80;72.40
20568;DHT22;10442;49.932;11.592;2023-10-31T06:36:31;13.80;72.60
20568;DHT22;10442;49.932;11.592;2023-10-31T06:38:58;13.80;72.70
20568;DHT22;10442;49.932;11.592;2023-10-31T06:41:26;13.80;72.50
20568;DHT22;10442;49.932;11.592;2023-10-31T06:43:54;13.80;72.50
20568;DHT22;10442;49.932;11.592;2023-10-31T06:46:22;13.90;72.80
20568;DHT22;10442;49.932;11.592;2023-10-31T06:48:49;13.90;72.80
20568;DHT22;10442;49.932;11.592;2023-10-31T06:51:17;13.90;72.70
20568;DHT22;10442;49.932;11.592;2023-10-31T06:53:45;13.90;72.70
20568;DHT22;10442;49.932;11.592;2023-10-31T06:56:13;13.90;72.70
20568;DHT22;10442;49.932;11.592;2023-10-31T06:58:40;13.90;72.80
20568;DHT22;10442;49.932;11.592;2023-10-31T07:01:08;13.90;72.70
20568;DHT22;10442;49.932;11.592;2023-10-31T07:03:36;14.00;72.70
20568;DHT22;10442;49.932;11.592;2023-10-31T07:06:04;14.00;72.50
20568;DHT22;10442;49.932;11.592;2023-10-31T07:08:33;14.00;72.60
20568;DHT22;10442;49.932;11.592;2023-10-31T07:11:01;14.00;72.70
20568;DHT22;10442;49.932;11.592;2023-10-31T07:13:30;14.10;72.70
20568;DHT22;10442;49.932;11.592;2023-10-31T07:15:58;14.10;72.40
20568;DHT22;10442;49.932;11.592;2023-10-31T07:18:26;14.10;72.20
20568;DHT22;10442;49.932;11.592;2023-10-31T07:20:53;14.20;72.40
20568;DHT22;10442;49.932;11.592;2023-10-31T07:23:21;14.20;72.40
20568;DHT22;10442;49.932;11.592;2023-10-31T07:25:50;14.20;72.10
20568;DHT22;10442;49.932;11.592;2023-10-31T07:28:17;14.20;72.10
20568;DHT22;10442;49.932;11.592;2023-10-31T07:30:46;14.20;72.00
20568;DHT22;10442;49.932;11.592;2023-10-31T07:33:13;14.20;71.90
20568;DHT22;10442;49.932;11.592;2023-10-31T07:35:40;14.20;71.80
20568;DHT22;10442;49.932;11.592;2023-10-31T07:38:08;14.20;71.90
20568;DHT22;10442;49.932;11.592;2023-10-31T07:40:35;14.20;71.90
20568;DHT22;10442;49.932;11.592;2023-10-31T07:43:03;14.20;71.70
20568;DHT22;10442;49.932;11.592;2023-10-31T07:45:31;14.20;71.80
20568;DHT22;10442;49.932;11.592;2023-10-31T07:47:58;14.20;72.00
20568;DHT22;10442;49.932;11.592;2023-10-31T07:50:26;14.20;72.10
20568;DHT22;10442;49.932;11.592;2023-10-31T07:52:53;14.20;72.20
20568;DHT22;10442;49.932;11.592;2023-10-31T07:55:21;14.20;72.50
20568;DHT22;10442;49.932;11.592;2023-10-31T07:57:50;14.20;72.60
20568;DHT22;10442;49.932;11.592;2023-10-31T08:00:17;14.20;72.50
20568;DHT22;10442;49.932;11.592;2023-10-31T08:02:45;14.10;72.50
20568;DHT22;10442;49.932;11.592;2023-10-31T08:05:13;14.20;72.90
20568;DHT22;10442;49.932;11.592;2023-10-31T08:07:41;14.10;72.90
20568;DHT22;10442;49.932;11.592;2023-10-31T08:10:09;14.10;72.70
20568;DHT22;10442;49.932;11.592;2023-10-31T08:12:36;14.10;72.90
20568;DHT22;10442;49.932;11.592;2023-10-31T08:15:04;14.10;73.10
20568;DHT22;10442;49.932;11.592;2023-10-31T08:17:32;14.10;73.40
20568;DHT22;10442;49.932;11.592;2023-10-31T08:20:00;14.10;73.30
20568;DHT22;10442;49.932;11.592;2023-10-31T08:22:27;14.00;73.40
20568;DHT22;10442;49.932;11.592;2023-10-31T08:24:55;14.00;73.60
20568;DHT22;10442;49.932;11.592;2023-10-31T08:27:22;14.00;73.50
20568;DHT22;10442;49.932;11.592;2023-10-31T08:29:50;13.90;73.60
20568;DHT22;10442;49.932;11.592;2023-10-31T08:32:17;13.90;73.80
20568;DHT22;10442;49.932;11.592;2023-10-31T08:34:45;13.90;73.80
20568;DHT22;10442;49.932;11.592;2023-10-31T08:37:13;14.00;74.10
20568;DHT22;10442;49.932;11.592;2023-10-31T08:39:40;13.90;74.00
20568;DHT22;10442;49.932;11.592;2023-10-31T08:42:08;14.00;73.70
20568;DHT22;10442;49.932;11.592;2023-10-31T08:44:36;14.00;73.50
20568;DHT22;10442;49.932;11.592;2023-10-31T08:47:05;14.00;73.40
20568;DHT22;10442;49.932;11.592;2023-10-31T08:49:34;14.00;73.20
20568;DHT22;10442;49.932;11.592;2023-10-31T08:52:01;14.00;72.80
20568;DHT22;10442;49.932;11.592;2023-10-31T08:54:29;14.00;72.40
20568;DHT22;10442;49.932;11.592;2023-10-31T08:56:57;14.00;72.50
20568;DHT22;10442;49.932;11.592;2023-10-31T08:59:25;14.10;72.20
20568;DHT22;10442;49.932;11.592;2023-10-31T09:01:52;14.10;72.10
20568;DHT22;10442;49.932;11.592;2023-10-31T09:04:20;14.10;72.00
20568;DHT22;10442;49.932;11.592;2023-10-31T09:06:48;14.20;71.90
20568;DHT22;10442;49.932;11.592;2023-10-31T09:09:15;14.20;71.60
20568;DHT22;10442;49.932;11.592;2023-10-31T09:11:43;14.20;71.40
20568;DHT22;10442;49.932;11.592;2023-10-31T09:14:10;14.30;71.20
20568;DHT22;10442;49.932;11.592;2023-10-31T09:16:38;14.30;71.00
20568;DHT22;10442;49.932;11.592;2023-10-31T09:19:06;14.30;70.90
20568;DHT22;10442;49.932;11.592;2023-10-31T09:21:33;14.30;71.20
20568;DHT22;10442;49.932;11.592;2023-10-31T09:24:02;14.30;70.80
20568;DHT22;10442;49.932;11.592;2023-10-31T09:26:30;14.40;70.90
20568;DHT22;10442;49.932;11.592;2023-10-31T09:28:57;14.40;70.80
20568;DHT22;10442;49.932;11.592;2023-10-31T09:31:25;14.40;70.60
20568;DHT22;10442;49.932;11.592;2023-10-31T09:33:53;14.40;70.30
20568;DHT22;10442;49.932;11.592;2023-10-31T09:36:22;14.50;70.80
20568;DHT22;10442;49.932;11.592;2023-10-31T09:38:50;14.60;70.70
20568;DHT22;10442;49.932;11.592;2023-10-31T09:41:18;14.60;70.20
20568;DHT22;10442;49.932;11.592;2023-10-31T09:43:47;14.70;70.20
20568;DHT22;10442;49.932;11.592;2023-10-31T09:46:16;14.70;70.30
20568;DHT22;10442;49.932;11.592;2023-10-31T09:48:44;14.80;70.40
20568;DHT22;10442;49.932;11.592;2023-10-31T09:51:13;14.90;69.90
20568;DHT22;10442;49.932;11.592;2023-10-31T09:53:43;15.00;70.00
20568;DHT22;10442;49.932;11.592;2023-10-31T09:56:11;15.00;69.40
20568;DHT22;10442;49.932;11.592;2023-10-31T09:58:39;15.00;69.40
20568;DHT22;10442;49.932;11.592;2023-10-31T10:01:08;15.00;69.40
20568;DHT22;10442;49.932;11.592;2023-10-31T10:03:36;15.00;69.70
20568;DHT22;10442;49.932;11.592;2023-10-31T10:06:05;15.00;69.80
20568;DHT22;10442;49.932;11.592;2023-10-31T10:08:37;14.90;69.90
20568;DHT22;10442;49.932;11.592;2023-10-31T10:11:06;14.90;70.10
20568;DHT22;10442;49.932;11.592;2023-10-31T10:13:33;14.90;70.00
20568;DHT22;10442;49.932;11.592;2023-10-31T10:16:02;14.90;70.00
20568;DHT22;10442;49.932;11.592;2023-10-31T10:18:31;14.80;70.20
20568;DHT22;10442;49.932;11.592;2023-10-31T10:21:01;14.80;70.40
20568;DHT22;10442;49.932;11.592;2023-10-31T10:23:30;14.90;70.30
20568;DHT22;10442;49.932;11.592;2023-10-31T10:26:02;14.90;70.30
20568;DHT22;10442;49.932;11.592;2023-10-31T10:28:29;14.90;70.10
20568;DHT22;10442;49.932;11.592;2023-10-31T10:30:57;14.90;70.10
20568;DHT22;10442;49.932;11.592;2023-10-31T10:33:25;14.90;70.10
20568;DHT22;10442;49.932;11.592;2023-10-31T10:35:54;14.90;70.20
20568;DHT22;10442;49.932;11.592;2023-10-31T10:38:22;14.90;70.20
20568;DHT22;10442;49.932;11.592;2023-10-31T10:40:50;14.90;70.00
20568;DHT22;10442;49.932;11.592;2023-10-31T10:43:26;14.90;70.10
20568;DHT22;10442;49.932;11.592;2023-10-31T10:45:58;14.90;69.60
20568;DHT22;10442;49.932;11.592;2023-10-31T10:48:27;14.90;69.30
20568;DHT22;10442;49.932;11.592;2023-10-31T10:51:26;14.90;69.40
20568;DHT22;10442;49.932;11.592;2023-10-31T10:54:01;14.90;69.50
20568;DHT22;10442;49.932;11.592;2023-10-31T10:56:38;14.90;70.30
20568;DHT22;10442;49.932;11.592;2023-10-31T10:59:20;14.90;69.30
20568;DHT22;10442;49.932;11.592;2023-10-31T11:01:49;14.90;69.60
20568;DHT22;10442;49.932;11.592;2023-10-31T11:04:17;14.80;69.70
20568;DHT22;10442;49.932;11.592;2023-10-31T11:06:45;14.80;69.70
20568;DHT22;10442;49.932;11.592;2023-10-31T11:09:14;14.90;69.30
20568;DHT22;10442;49.932;11.592;2023-10-31T11:11:43;14.90;69.50
20568;DHT22;10442;49.932;11.592;2023-10-31T11:14:17;14.90;69.40
20568;DHT22;10442;49.932;11.592;2023-10-31T11:16:52;14.90;69.20
20568;DHT22;10442;49.932;11.592;2023-10-31T11:19:23;14.90;68.90
20568;DHT22;10442;49.932;11.592;2023-10-31T11:21:55;14.80;69.00
20568;DHT22;10442;49.932;11.592;2023-10-31T11:24:23;14.80;69.00
20568;DHT22;10442;49.932;11.592;2023-10-31T11:26:52;14.90;69.10
20568;DHT22;10442;49.932;11.592;2023-10-31T11:29:20;14.80;69.30
20568;DHT22;10442;49.932;11.592;2023-10-31T11:31:48;14.80;69.30
20568;DHT22;10442;49.932;11.592;2023-10-31T11:34:17;14.80;69.50
20568;DHT22;10442;49.932;11.592;2023-10-31T11:36:46;14.80;69.40
20568;DHT22;10442;49.932;11.592;2023-10-31T11:39:18;14.80;69.60
20568;DHT22;10442;49.932;11.592;2023-10-31T11:41:54;14.70;69.80
20568;DHT22;10442;49.932;11.592;2023-10-31T11:44:23;14.70;69.90
20568;DHT22;10442;49.932;11.592;2023-10-31T11:46:53;14.70;70.00
20568;DHT22;10442;49.932;11.592;2023-10-31T11:49:46;14.70;70.20
20568;DHT22;10442;49.932;11.592;2023-10-31T11:52:17;14.70;70.20
20568;DHT22;10442;49.932;11.592;2023-10-31T11:54:45;14.70;69.90
20568;DHT22;10442;49.932;11.592;2023-10-31T11:57:27;14.70;69.90
20568;DHT22;10442;49.932;11.592;2023-10-31T11:59:56;14.60;70.00
20568;DHT22;10442;49.932;11.592;2023-10-31T12:02:23;14.60;70.50
20568;DHT22;10442;49.932;11.592;2023-10-31T12:04:50;14.60;70.90
20568;DHT22;10442;49.932;11.592;2023-10-31T12:07:18;14.60;71.30
20568;DHT22;10442;49.932;11.592;2023-10-31T12:09:47;14.60;71.80
20568;DHT22;10442;49.932;11.592;2023-10-31T12:12:15;14.60;71.30
20568;DHT22;10442;49.932;11.592;2023-10-31T12:14:42;14.60;71.40
20568;DHT22;10442;49.932;11.592;2023-10-31T12:17:10;14.60;71.50
20568;DHT22;10442;49.932;11.592;2023-10-31T12:19:39;14.60;71.60
20568;DHT22;10442;49.932;11.592;2023-10-31T12:22:15;14.60;72.40
20568;DHT22;10442;49.932;11.592;2023-10-31T12:24:43;14.60;72.00
20568;DHT22;10442;49.932;11.592;2023-10-31T12:27:10;14.60;72.10
20568;DHT22;10442;49.932;11.592;2023-10-31T12:29:39;14.60;72.00
20568;DHT22;10442;49.932;11.592;2023-10-31T12:32:12;14.60;71.90
20568;DHT22;10442;49.932;11.592;2023-10-31T12:34:43;14.60;71.60
20568;DHT22;10442;49.932;11.592;2023-10-31T12:37:11;14.60;71.60
20568;DHT22;10442;49.932;11.592;2023-10-31T12:39:41;14.60;71.80
20568;DHT22;10442;49.932;11.592;2023-10-31T12:42:08;14.70;71.90
20568;DHT22;10442;49.932;11.592;2023-10-31T12:44:36;14.70;71.80
20568;DHT22;10442;49.932;11.592;2023-10-31T12:47:07;14.70;71.70
20568;DHT22;10442;49.932;11.592;2023-10-31T12:49:35;14.70;71.50
20568;DHT22;10442;49.932;11.592;2023-10-31T12:52:03;14.70;71.40
20568;DHT22;10442;49.932;11.592;2023-10-31T12:54:36;14.70;71.20
20568;DHT22;10442;49.932;11.592;2023-10-31T12:57:08;14.70;71.20
20568;DHT22;10442;49.932;11.592;2023-10-31T12:59:37;14.70;71.40
20568;DHT22;10442;49.932;11.592;2023-10-31T13:02:08;14.70;71.40
20568;DHT22;10442;49.932;11.592;2023-10-31T13:04:38;14.70;71.30
20568;DHT22;10442;49.932;11.592;2023-10-31T13:07:07;14.70;71.10
20568;DHT22;10442;49.932;11.592;2023-10-31T13:09:36;14.70;71.10
20568;DHT22;10442;49.932;11.592;2023-10-31T13:12:07;14.70;71.10
20568;DHT22;10442;49.932;11.592;2023-10-31T13:14:35;14.70;70.80
20568;DHT22;10442;49.932;11.592;2023-10-31T13:17:04;14.70;70.50
20568;DHT22;10442;49.932;11.592;2023-10-31T13:19:32;14.70;70.50
20568;DHT22;10442;49.932;11.592;2023-10-31T13:22:00;14.70;70.40
20568;DHT22;10442;49.932;11.592;2023-10-31T13:24:27;14.80;70.60
20568;DHT22;10442;49.932;11.592;2023-10-31T13:26:55;14.80;70.40
20568;DHT22;10442;49.932;11.592;2023-10-31T13:29:22;14.80;69.40
20568;DHT22;10442;49.932;11.592;2023-10-31T13:31:53;14.80;69.60
20568;DHT22;10442;49.932;11.592;2023-10-31T13:34:21;14.80;69.40
20568;DHT22;10442;49.932;11.592;2023-10-31T13:36:49;14.80;69.10
20568;DHT22;10442;49.932;11.592;2023-10-31T13:39:21;14.80;68.70
20568;DHT22;10442;49.932;11.592;2023-10-31T13:41:49;14.80;68.80
20568;DHT22;10442;49.932;11.592;2023-10-31T13:44:17;14.80;68.30
20568;DHT22;10442;49.932;11.592;2023-10-31T13:46:46;14.80;67.60
20568;DHT22;10442;49.932;11.592;2023-10-31T13:49:13;14.80;68.20
20568;DHT22;10442;49.932;11.592;2023-10-31T13:51:41;14.80;67.50
20568;DHT22;10442;49.932;11.592;2023-10-31T13:54:09;14.80;67.80
20568;DHT22;10442;49.932;11.592;2023-10-31T13:56:37;14.80;67.80
20568;DHT22;10442;49.932;11.592;2023-10-31T13:59:04;14.80;67.30
20568;DHT22;10442;49.932;11.592;2023-10-31T14:01:32;14.80;67.10
20568;DHT22;10442;49.932;11.592;2023-10-31T14:04:00;14.80;67.40
20568;DHT22;10442;49.932;11.592;2023-10-31T14:06:28;14.80;67.30
20568;DHT22;10442;49.932;11.592;2023-10-31T14:09:00;14.80;67.70
20568;DHT22;10442;49.932;11.592;2023-10-31T14:11:32;14.80;67.70
20568;DHT22;10442;49.932;11.592;2023-10-31T14:14:00;14.80;67.90
20568;DHT22;10442;49.932;11.592;2023-10-31T14:16:30;14.80;67.70
20568;DHT22;10442;49.932;11.592;2023-10-31T14:18:58;14.80;67.70
20568;DHT22;10442;49.932;11.592;2023-10-31T14:21:26;14.80;67.50
20568;DHT22;10442;49.932;11.592;2023-10-31T14:23:53;14.80;67.50
20568;DHT22;10442;49.932;11.592;2023-10-31T14:26:31;14.80;67.20
20568;DHT22;10442;49.932;11.592;2023-10-31T14:29:00;14.80;67.50
20568;DHT22;10442;49.932;11.592;2023-10-31T14:31:27;14.70;67.10
20568;DHT22;10442;49.932;11.592;2023-10-31T14:33:55;14.80;67.50
20568;DHT22;10442;49.932;11.592;2023-10-31T14:36:23;14.70;67.40
20568;DHT22;10442;49.932;11.592;2023-10-31T14:38:50;14.70;67.60
20568;DHT22;10442;49.932;11.592;2023-10-31T14:41:18;14.80;67.70
20568;DHT22;10442;49.932;11.592;2023-10-31T14:43:46;14.80;67.70
20568;DHT22;10442;49.932;11.592;2023-10-31T14:46:14;14.80;68.50
20568;DHT22;10442;49.932;11.592;2023-10-31T14:48:41;14.80;67.90
20568;DHT22;10442;49.932;11.592;2023-10-31T14:51:09;14.90;67.70
20568;DHT22;10442;49.932;11.592;2023-10-31T14:53:36;14.90;67.80
20568;DHT22;10442;49.932;11.592;2023-10-31T14:56:04;14.90;67.50
20568;DHT22;10442;49.932;11.592;2023-10-31T14:58:33;14.80;67.50
20568;DHT22;10442;49.932;11.592;2023-10-31T15:01:01;14.80;67.20
20568;DHT22;10442;49.932;11.592;2023-10-31T15:03:28;14.80;67.30
20568;DHT22;10442;49.932;11.592;2023-10-31T15:05:56;14.80;67.40
20568;DHT22;10442;49.932;11.592;2023-10-31T15:08:23;14.80;67.40
20568;DHT22;10442;49.932;11.592;2023-10-31T15:10:52;14.80;67.50
20568;DHT22;10442;49.932;11.592;2023-10-31T15:13:20;14.80;67.40
20568;DHT22;10442;49.932;11.592;2023-10-31T15:15:48;14.70;67.10
20568;DHT22;10442;49.932;11.592;2023-10-31T15:18:16;14.70;67.00
20568;DHT22;10442;49.932;11.592;2023-10-31T15:20:45;14.70;67.10
20568;DHT22;10442;49.932;11.592;2023-10-31T15:23:12;14.70;67.30